createdAt,value
2019-01-30T00:00:57.331Z,4.00
2019-01-30T00:01:57.317Z,4.00
2019-01-30T00:02:57.306Z,4.00
2019-01-30T00:03:57.296Z,4.00
2019-01-30T00:04:57.288Z,4.00
2019-01-30T00:05:57.274Z,4.00
2019-01-30T00:06:57.262Z,4.00
2019-01-30T00:07:57.256Z,4.00
2019-01-30T00:08:57.238Z,4.00
2019-01-30T00:09:57.227Z,4.00
2019-01-30T00:10:57.215Z,4.00
2019-01-30T00:11:57.203Z,4.00
2019-01-30T00:12:57.193Z,4.00
2019-01-30T00:13:57.189Z,4.00
2019-01-30T00:14:57.171Z,4.00
2019-01-30T00:15:57.158Z,4.00
2019-01-30T00:16:57.148Z,4.00
2019-01-30T00:17:57.138Z,4.00
2019-01-30T00:18:57.127Z,4.00
2019-01-30T00:19:57.114Z,4.00
2019-01-30T00:20:57.104Z,4.00
2019-01-30T00:21:57.096Z,4.00
2019-01-30T00:22:57.079Z,4.00
2019-01-30T00:23:57.076Z,4.00
2019-01-30T00:24:57.057Z,4.00
2019-01-30T00:25:57.051Z,4.00
2019-01-30T00:26:57.044Z,4.00
2019-01-30T00:27:57.030Z,4.00
2019-01-30T00:28:57.019Z,4.00
2019-01-30T00:30:03.899Z,4.00
2019-01-30T00:31:21.477Z,4.00
2019-01-30T00:32:21.467Z,4.00
2019-01-30T00:33:21.453Z,4.00
2019-01-30T00:34:21.442Z,4.00
2019-01-30T00:35:21.433Z,4.00
2019-01-30T00:36:21.418Z,4.00
2019-01-30T00:37:21.408Z,4.00
2019-01-30T00:38:21.397Z,4.00
2019-01-30T00:39:21.386Z,4.00
2019-01-30T00:40:21.374Z,4.00
2019-01-30T00:41:21.362Z,4.00
2019-01-30T00:42:21.353Z,4.00
2019-01-30T00:43:21.349Z,4.00
2019-01-30T00:44:21.329Z,4.00
2019-01-30T00:45:21.318Z,4.00
2019-01-30T00:46:21.306Z,4.00
2019-01-30T00:47:21.297Z,4.00
2019-01-30T00:48:21.284Z,4.00
2019-01-30T00:49:21.276Z,4.00
2019-01-30T00:50:21.265Z,4.00
2019-01-30T00:51:21.251Z,4.00
2019-01-30T00:52:21.243Z,4.00
2019-01-30T00:53:21.237Z,4.00
2019-01-30T06:41:41.894Z,96.00
2019-01-30T06:42:41.879Z,108.00
2019-01-30T06:43:41.868Z,116.00
2019-01-30T06:44:41.859Z,120.00
2019-01-30T06:45:41.872Z,128.00
2019-01-30T06:46:41.840Z,136.00
2019-01-30T06:47:41.824Z,148.00
2019-01-30T06:48:41.813Z,160.00
2019-01-30T06:49:41.803Z,176.00
2019-01-30T06:50:41.793Z,192.00
2019-01-30T06:51:41.779Z,204.00
2019-01-30T06:52:41.775Z,224.00
2019-01-30T06:53:41.764Z,240.00
2019-01-30T06:56:41.725Z,304.00
2019-01-30T06:57:41.716Z,328.00
2019-01-30T06:58:41.712Z,352.00
2019-01-30T06:59:41.695Z,380.00
2019-01-30T07:00:41.684Z,404.00
2019-01-30T07:01:41.686Z,436.00
2019-01-30T07:02:41.662Z,468.00
2019-01-30T07:03:41.658Z,500.00
2019-01-30T07:04:41.639Z,540.00
2019-01-30T07:05:41.673Z,580.00
2019-01-30T07:06:41.616Z,624.00
2019-01-30T07:07:41.614Z,664.00
2019-01-30T07:08:41.801Z,708.00
2019-01-30T07:09:41.586Z,748.00
2019-01-30T07:10:41.573Z,792.00
2019-01-30T07:11:41.565Z,836.00
2019-01-30T07:12:41.551Z,880.00
2019-01-30T07:13:41.542Z,920.00
2019-01-30T07:14:41.529Z,960.00
2019-01-30T07:15:41.530Z,1000.00
2019-01-30T07:16:41.509Z,1040.00
2019-01-30T07:17:41.496Z,1076.00
2019-01-30T07:18:41.484Z,1124.00
2019-01-30T07:19:41.475Z,1168.00
2019-01-30T07:20:41.465Z,1224.00
2019-01-30T07:21:41.452Z,1272.00
2019-01-30T07:22:41.442Z,1328.00
2019-01-30T07:23:41.430Z,1380.00
2019-01-30T07:24:41.445Z,1424.00
2019-01-30T07:25:41.411Z,1472.00
2019-01-30T07:26:41.397Z,1520.00
2019-01-30T07:27:41.390Z,1552.00
2019-01-30T07:28:41.376Z,1580.00
2019-01-30T07:29:41.364Z,1616.00
2019-01-30T07:30:41.353Z,1656.00
2019-01-30T07:31:41.343Z,1700.00
2019-01-30T07:32:42.270Z,1748.00
2019-01-30T07:33:41.322Z,1796.00
2019-01-30T07:34:41.309Z,1848.00
2019-01-30T07:35:41.298Z,1908.00
2019-01-30T07:36:41.290Z,1992.00
2019-01-30T07:37:41.276Z,2056.00
2019-01-30T07:38:41.268Z,2112.00
2019-01-30T07:39:41.257Z,2156.00
2019-01-30T07:40:41.251Z,2212.00
2019-01-30T07:41:41.239Z,2236.00
2019-01-30T07:42:41.224Z,2272.00
2019-01-30T07:43:41.213Z,2320.00
2019-01-30T07:44:50.270Z,2392.00
2019-01-30T07:46:05.676Z,2476.00
2019-01-30T07:47:05.664Z,2492.00
2019-01-30T07:48:05.657Z,2548.00
2019-01-30T07:49:05.647Z,2596.00
2019-01-30T07:50:05.628Z,2680.00
2019-01-30T07:51:05.621Z,2756.00
2019-01-30T07:52:05.606Z,2828.00
2019-01-30T07:53:05.596Z,2900.00
2019-01-30T07:54:05.669Z,2936.00
2019-01-30T07:55:05.578Z,3012.00
2019-01-30T07:56:05.565Z,3084.00
2019-01-30T07:57:05.555Z,3140.00
2019-01-30T07:58:05.983Z,3244.00
2019-01-30T07:59:05.535Z,3368.00
2019-01-30T08:00:05.521Z,3444.00
2019-01-30T08:01:05.506Z,3476.00
2019-01-30T08:02:05.504Z,3524.00
2019-01-30T08:03:05.487Z,3612.00
2019-01-30T08:04:05.475Z,3708.00
2019-01-30T08:05:05.464Z,3844.00
2019-01-30T08:06:05.454Z,3928.00
2019-01-30T08:07:05.443Z,3956.00
2019-01-30T08:08:05.431Z,3888.00
2019-01-30T08:09:05.424Z,4128.00
2019-01-30T08:10:05.410Z,4312.00
2019-01-30T08:11:07.329Z,4040.00
2019-01-30T08:12:05.386Z,4460.00
2019-01-30T08:13:05.379Z,4660.00
2019-01-30T08:14:05.363Z,4404.00
2019-01-30T08:15:05.356Z,4776.00
2019-01-30T08:16:05.341Z,4864.00
2019-01-30T08:17:05.330Z,5112.00
2019-01-30T08:18:05.319Z,5112.00
2019-01-30T08:19:05.307Z,5140.00
2019-01-30T08:20:05.299Z,5020.00
2019-01-30T08:21:05.286Z,5160.00
2019-01-30T08:22:05.274Z,5168.00
2019-01-30T08:23:05.283Z,5224.00
2019-01-30T08:24:05.610Z,5268.00
2019-01-30T08:25:05.726Z,5488.00
2019-01-30T08:26:05.611Z,5236.00
2019-01-30T08:27:05.218Z,5460.00
2019-01-30T08:28:05.284Z,5520.00
2019-01-30T08:29:05.271Z,5484.00
2019-01-30T08:30:05.702Z,5516.00
2019-01-30T08:31:05.532Z,5540.00
2019-01-30T08:32:05.164Z,5656.00
2019-01-30T08:33:05.878Z,5832.00
2019-01-30T08:34:05.151Z,6072.00
2019-01-30T08:35:05.130Z,6160.00
2019-01-30T08:36:05.118Z,6232.00
2019-01-30T08:37:05.110Z,6268.00
2019-01-30T08:38:05.105Z,6344.00
2019-01-30T08:39:05.088Z,6416.00
2019-01-30T08:40:05.079Z,6512.00
2019-01-30T08:41:05.068Z,6604.00
2019-01-30T08:42:05.059Z,6684.00
2019-01-30T08:43:05.045Z,6776.00
2019-01-30T08:44:05.034Z,6832.00
2019-01-30T08:45:05.023Z,6876.00
2019-01-30T08:46:05.008Z,6936.00
2019-01-30T08:47:05.017Z,6980.00
2019-01-30T08:48:05.012Z,7084.00
2019-01-30T08:49:05.025Z,7384.00
2019-01-30T08:50:29.497Z,7480.00
2019-01-30T08:51:29.485Z,7628.00
2019-01-30T08:52:29.476Z,7480.00
2019-01-30T08:53:29.465Z,7380.00
2019-01-30T08:54:29.451Z,7328.00
2019-01-30T08:55:29.444Z,7216.00
2019-01-30T08:56:29.429Z,7332.00
2019-01-30T08:57:29.419Z,7480.00
2019-01-30T08:58:29.407Z,7572.00
2019-01-30T08:59:29.403Z,7280.00
2019-01-30T09:00:29.390Z,7564.00
2019-01-30T09:01:29.374Z,7996.00
2019-01-30T09:02:29.374Z,8268.00
2019-01-30T09:03:29.352Z,8472.00
2019-01-30T09:04:29.338Z,8632.00
2019-01-30T09:05:29.328Z,8752.00
2019-01-30T09:06:29.318Z,7952.00
2019-01-30T09:07:29.317Z,8560.00
2019-01-30T09:08:29.295Z,8832.00
2019-01-30T09:09:29.284Z,8840.00
2019-01-30T09:10:29.277Z,9104.00
2019-01-30T09:11:29.262Z,9404.00
2019-01-30T09:12:29.250Z,9528.00
2019-01-30T09:13:29.241Z,9732.00
2019-01-30T09:14:29.233Z,9616.00
2019-01-30T09:15:29.218Z,9656.00
2019-01-30T09:16:29.204Z,9976.00
2019-01-30T09:17:29.195Z,9908.00
2019-01-30T09:18:29.182Z,10204.00
2019-01-30T09:19:29.172Z,10448.00
2019-01-30T09:20:29.161Z,10628.00
2019-01-30T09:21:29.157Z,11000.00
2019-01-30T09:22:29.140Z,11316.00
2019-01-30T09:23:29.131Z,11516.00
2019-01-30T09:24:29.119Z,11780.00
2019-01-30T09:25:29.107Z,11292.00
2019-01-30T09:26:29.093Z,10792.00
2019-01-30T09:27:29.082Z,11372.00
2019-01-30T09:28:29.073Z,12432.00
2019-01-30T09:29:29.063Z,13028.00
2019-01-30T09:30:29.049Z,14124.00
2019-01-30T09:31:29.039Z,14260.00
2019-01-30T09:32:29.026Z,14224.00
2019-01-30T09:33:29.020Z,14820.00
2019-01-30T09:34:29.005Z,16004.00
2019-01-30T09:35:28.993Z,16044.00
2019-01-30T09:36:29.034Z,15904.00
2019-01-30T09:37:28.999Z,15996.00
2019-01-30T09:38:29.049Z,15632.00
2019-01-30T09:39:28.950Z,15016.00
2019-01-30T09:40:28.959Z,14124.00
2019-01-30T09:41:28.927Z,13628.00
2019-01-30T09:42:28.916Z,12872.00
2019-01-30T09:43:28.937Z,12356.00
2019-01-30T09:44:28.892Z,12704.00
2019-01-30T09:45:28.911Z,13260.00
2019-01-30T09:46:28.891Z,14028.00
2019-01-30T09:47:28.861Z,13668.00
2019-01-30T09:48:28.950Z,12956.00
2019-01-30T09:49:28.875Z,14788.00
2019-01-30T09:50:28.828Z,14516.00
2019-01-30T09:51:28.825Z,13796.00
2019-01-30T09:52:28.806Z,15228.00
2019-01-30T09:53:28.794Z,15356.00
2019-01-30T09:54:28.794Z,16016.00
2019-01-30T09:55:28.771Z,16652.00
2019-01-30T09:56:28.763Z,16984.00
2019-01-30T09:57:28.758Z,17440.00
2019-01-30T09:58:28.740Z,18624.00
2019-01-30T09:59:28.729Z,19200.00
2019-01-30T10:00:28.719Z,19552.00
2019-01-30T10:01:28.706Z,19840.00
2019-01-30T10:02:28.706Z,20768.00
2019-01-30T10:03:36.094Z,21312.00
2019-01-30T10:04:53.154Z,22112.00
2019-01-30T10:05:53.145Z,24192.00
2019-01-30T10:06:53.131Z,24672.00
2019-01-30T10:07:55.200Z,24960.00
2019-01-30T10:08:53.112Z,24768.00
2019-01-30T10:09:53.099Z,23808.00
2019-01-30T10:10:53.087Z,23008.00
2019-01-30T10:11:53.080Z,22784.00
2019-01-30T10:12:53.062Z,21216.00
2019-01-30T10:13:53.053Z,20320.00
2019-01-30T10:14:53.043Z,19584.00
2019-01-30T10:15:53.025Z,18496.00
2019-01-30T10:16:53.024Z,18080.00
2019-01-30T10:17:53.003Z,16992.00
2019-01-30T10:18:52.991Z,17120.00
2019-01-30T10:19:52.980Z,17856.00
2019-01-30T10:20:52.975Z,18048.00
2019-01-30T10:21:52.956Z,19776.00
2019-01-30T10:22:52.952Z,20608.00
2019-01-30T10:23:52.932Z,22400.00
2019-01-30T10:24:52.928Z,23648.00
2019-01-30T10:25:52.912Z,22432.00
2019-01-30T10:26:52.902Z,21920.00
2019-01-30T10:27:52.888Z,26688.00
2019-01-30T10:28:52.877Z,26176.00
2019-01-30T10:29:52.864Z,24640.00
2019-01-30T10:30:52.862Z,26080.00
2019-01-30T10:31:52.842Z,25152.00
2019-01-30T10:32:52.835Z,25728.00
2019-01-30T10:33:52.820Z,25920.00
2019-01-30T10:34:52.808Z,25504.00
2019-01-30T10:35:52.798Z,23808.00
2019-01-30T10:36:52.787Z,21760.00
2019-01-30T10:37:52.774Z,20256.00
2019-01-30T10:38:52.764Z,18336.00
2019-01-30T10:39:52.761Z,16960.00
2019-01-30T10:40:52.739Z,15776.00
2019-01-30T10:41:52.737Z,14928.00
2019-01-30T10:42:52.728Z,14624.00
2019-01-30T10:43:52.707Z,14532.00
2019-01-30T10:44:52.696Z,14312.00
2019-01-30T10:45:52.685Z,14056.00
2019-01-30T10:46:52.678Z,14272.00
2019-01-30T10:47:52.664Z,13916.00
2019-01-30T10:48:52.651Z,12484.00
2019-01-30T10:49:52.643Z,12804.00
2019-01-30T10:50:52.629Z,12396.00
2019-01-30T10:51:52.616Z,11652.00
2019-01-30T10:52:52.605Z,11216.00
2019-01-30T10:53:52.593Z,11336.00
2019-01-30T10:54:52.584Z,11312.00
2019-01-30T10:55:52.570Z,11680.00
2019-01-30T10:56:52.559Z,12092.00
2019-01-30T10:57:52.548Z,12004.00
2019-01-30T10:58:52.535Z,11600.00
2019-01-30T10:59:52.525Z,11624.00
2019-01-30T11:00:52.514Z,11492.00
2019-01-30T11:01:52.511Z,11336.00
2019-01-30T11:02:52.489Z,10704.00
2019-01-30T11:03:57.451Z,11524.00
2019-01-30T11:04:52.469Z,11280.00
2019-01-30T11:05:52.552Z,10768.00
2019-01-30T11:06:52.445Z,10392.00
2019-01-30T11:07:52.434Z,10452.00
2019-01-30T11:08:52.422Z,11100.00
2019-01-30T11:09:52.414Z,10452.00
2019-01-30T11:10:52.403Z,10620.00
2019-01-30T11:11:52.395Z,10816.00
2019-01-30T11:12:52.377Z,10276.00
2019-01-30T11:13:52.365Z,9988.00
2019-01-30T11:14:52.355Z,10856.00
2019-01-30T11:15:52.343Z,10960.00
2019-01-30T11:16:52.340Z,10792.00
2019-01-30T11:17:52.328Z,10428.00
2019-01-30T11:18:52.310Z,9492.00
2019-01-30T11:19:52.303Z,9916.00
2019-01-30T11:20:52.291Z,10412.00
2019-01-30T11:21:52.275Z,10424.00
2019-01-30T11:22:53.633Z,10360.00
2019-01-30T11:23:52.258Z,10260.00
2019-01-30T11:24:52.245Z,10232.00
2019-01-30T11:25:52.230Z,10216.00
2019-01-30T11:26:52.219Z,10836.00
2019-01-30T11:27:52.210Z,11404.00
2019-01-30T11:28:52.286Z,11676.00
2019-01-30T11:29:52.192Z,12180.00
2019-01-30T11:30:52.173Z,12208.00
2019-01-30T11:31:52.166Z,12072.00
2019-01-30T11:32:52.159Z,10756.00
2019-01-30T11:33:52.147Z,10648.00
2019-01-30T11:34:52.136Z,10952.00
2019-01-30T11:35:52.120Z,11136.00
2019-01-30T11:36:52.108Z,11096.00
2019-01-30T11:37:52.095Z,11136.00
2019-01-30T11:38:52.081Z,11484.00
2019-01-30T11:39:52.071Z,13912.00
2019-01-30T11:40:52.062Z,13176.00
2019-01-30T11:41:52.048Z,12144.00
2019-01-30T11:42:52.038Z,15104.00
2019-01-30T11:43:52.024Z,14864.00
2019-01-30T11:44:52.014Z,13868.00
2019-01-30T11:45:52.002Z,14228.00
2019-01-30T11:46:51.988Z,13684.00
2019-01-30T11:47:51.979Z,13968.00
2019-01-30T11:48:56.529Z,13668.00
2019-01-30T11:49:51.956Z,12080.00
2019-01-30T11:50:51.952Z,11428.00
2019-01-30T11:51:51.933Z,12736.00
2019-01-30T11:52:51.921Z,13828.00
2019-01-30T11:53:51.910Z,13564.00
2019-01-30T11:54:51.899Z,12808.00
2019-01-30T11:55:51.886Z,13244.00
2019-01-30T11:56:51.877Z,13064.00
2019-01-30T11:57:51.979Z,12716.00
2019-01-30T11:58:51.854Z,11468.00
2019-01-30T11:59:51.843Z,11616.00
2019-01-30T12:00:51.832Z,11976.00
2019-01-30T12:01:51.825Z,11924.00
2019-01-30T12:02:51.810Z,12224.00
2019-01-30T12:03:51.798Z,11912.00
2019-01-30T12:04:51.787Z,11736.00
2019-01-30T12:05:51.778Z,11084.00
2019-01-30T12:06:51.761Z,10544.00
2019-01-30T12:07:51.765Z,11092.00
2019-01-30T12:08:51.738Z,10564.00
2019-01-30T12:09:51.729Z,10992.00
2019-01-30T12:10:51.714Z,11288.00
2019-01-30T12:11:51.780Z,10784.00
2019-01-30T12:12:51.693Z,11880.00
2019-01-30T12:13:51.677Z,12700.00
2019-01-30T12:14:51.678Z,12564.00
2019-01-30T12:15:51.655Z,10320.00
2019-01-30T12:16:51.642Z,10364.00
2019-01-30T12:17:51.632Z,10884.00
2019-01-30T12:18:51.619Z,11068.00
2019-01-30T12:19:51.607Z,11140.00
2019-01-30T12:20:52.051Z,11136.00
2019-01-30T12:21:53.583Z,10728.00
2019-01-30T12:22:51.575Z,10536.00
2019-01-30T12:23:51.559Z,9672.00
2019-01-30T12:24:51.548Z,9964.00
2019-01-30T12:25:51.541Z,10024.00
2019-01-30T12:26:51.527Z,10240.00
2019-01-30T12:27:51.513Z,8592.00
2019-01-30T12:28:51.505Z,6708.00
2019-01-30T12:29:51.494Z,6668.00
2019-01-30T12:30:51.484Z,8008.00
2019-01-30T12:31:51.469Z,9172.00
2019-01-30T12:32:51.454Z,8872.00
2019-01-30T12:33:51.448Z,7908.00
2019-01-30T12:34:51.439Z,7420.00
2019-01-30T12:35:51.422Z,7796.00
2019-01-30T12:36:51.412Z,8272.00
2019-01-30T12:37:51.402Z,8496.00
2019-01-30T12:38:51.389Z,8148.00
2019-01-30T12:39:51.382Z,7888.00
2019-01-30T12:40:51.377Z,7872.00
2019-01-30T12:41:51.358Z,8060.00
2019-01-30T12:42:51.346Z,8476.00
2019-01-30T12:43:51.337Z,8260.00
2019-01-30T12:44:51.322Z,8152.00
2019-01-30T12:45:51.311Z,8300.00
2019-01-30T12:46:51.300Z,7876.00
2019-01-30T12:47:51.289Z,7780.00
2019-01-30T12:48:51.286Z,7920.00
2019-01-30T12:49:51.267Z,7344.00
2019-01-30T12:50:51.255Z,6832.00
2019-01-30T12:51:51.274Z,6804.00
2019-01-30T12:52:51.238Z,6724.00
2019-01-30T12:53:51.222Z,6804.00
2019-01-30T12:54:51.214Z,6572.00
2019-01-30T12:55:51.208Z,6424.00
2019-01-30T12:56:51.191Z,6304.00
2019-01-30T12:57:51.178Z,6180.00
2019-01-30T12:58:51.171Z,6156.00
2019-01-30T12:59:51.158Z,6036.00
2019-01-30T13:00:51.155Z,6024.00
2019-01-30T13:01:51.136Z,5976.00
2019-01-30T13:02:51.129Z,5760.00
2019-01-30T13:03:51.118Z,5688.00
2019-01-30T13:04:51.110Z,5680.00
2019-01-30T13:05:51.090Z,5524.00
2019-01-30T13:06:51.080Z,5384.00
2019-01-30T13:07:51.071Z,5280.00
2019-01-30T13:08:51.058Z,5280.00
2019-01-30T13:09:51.047Z,5264.00
2019-01-30T13:10:51.034Z,5224.00
2019-01-30T13:11:51.027Z,5124.00
2019-01-30T13:12:51.019Z,5024.00
2019-01-30T13:13:51.003Z,4920.00
2019-01-30T13:14:50.990Z,4908.00
2019-01-30T13:15:50.979Z,4884.00
2019-01-30T13:16:50.973Z,4868.00
2019-01-30T13:17:50.962Z,4876.00
2019-01-30T13:18:50.944Z,4808.00
2019-01-30T13:19:50.933Z,4756.00
2019-01-30T13:20:50.927Z,4752.00
2019-01-30T13:21:50.926Z,4744.00
2019-01-30T13:22:50.929Z,4772.00
2019-01-30T13:23:50.937Z,4748.00
2019-01-30T13:24:50.875Z,4628.00
2019-01-30T13:25:50.879Z,4504.00
2019-01-30T13:26:50.882Z,4428.00
2019-01-30T13:27:50.882Z,4392.00
2019-01-30T13:28:50.886Z,4372.00
2019-01-30T13:29:50.825Z,4352.00
2019-01-30T13:30:50.814Z,4320.00
2019-01-30T13:31:50.797Z,4256.00
2019-01-30T13:32:50.788Z,4200.00
2019-01-30T13:33:50.774Z,4160.00
2019-01-30T13:34:50.762Z,4132.00
2019-01-30T13:35:50.749Z,4092.00
2019-01-30T13:36:50.741Z,4048.00
2019-01-30T13:37:50.727Z,4000.00
2019-01-30T13:38:50.720Z,3972.00
2019-01-30T13:39:50.705Z,3928.00
2019-01-30T13:40:50.696Z,3864.00
2019-01-30T13:41:52.693Z,3804.00
2019-01-30T13:42:50.671Z,3732.00
2019-01-30T13:43:50.659Z,3660.00
2019-01-30T13:44:50.648Z,3592.00
2019-01-30T13:45:50.638Z,3524.00
2019-01-30T13:46:50.624Z,3456.00
2019-01-30T13:47:50.624Z,3388.00
2019-01-30T13:48:50.607Z,3324.00
2019-01-30T13:49:50.607Z,3260.00
2019-01-30T13:50:50.611Z,3196.00
2019-01-30T13:51:50.575Z,3136.00
2019-01-30T13:52:50.611Z,3084.00
2019-01-30T13:53:50.544Z,3036.00
2019-01-30T13:54:50.534Z,2992.00
2019-01-30T13:55:50.521Z,2952.00
2019-01-30T13:56:50.513Z,2916.00
2019-01-30T13:57:50.501Z,2888.00
2019-01-30T13:58:50.501Z,2868.00
2019-01-30T13:59:50.504Z,2848.00
2019-01-30T14:00:50.464Z,2816.00
2019-01-30T14:01:50.459Z,2796.00
2019-01-30T14:02:50.469Z,2772.00
2019-01-30T14:03:50.439Z,2740.00
2019-01-30T14:04:59.300Z,2720.00
2019-01-30T14:06:14.888Z,2692.00
2019-01-30T14:07:14.878Z,2664.00
2019-01-30T14:08:14.872Z,2644.00
2019-01-30T14:09:14.877Z,2616.00
2019-01-30T14:10:14.860Z,2592.00
2019-01-30T14:11:14.851Z,2572.00
2019-01-30T14:12:14.854Z,2548.00
2019-01-30T14:13:14.825Z,2524.00
2019-01-30T14:14:14.829Z,2504.00
2019-01-30T14:15:14.787Z,2480.00
2019-01-30T14:16:14.777Z,2456.00
2019-01-30T14:17:14.799Z,2436.00
2019-01-30T14:18:14.752Z,2416.00
2019-01-30T14:19:14.742Z,2396.00
2019-01-30T14:20:14.731Z,2384.00
2019-01-30T14:21:14.799Z,2368.00
2019-01-30T14:22:14.733Z,2348.00
2019-01-30T14:23:14.697Z,2328.00
2019-01-30T14:24:14.687Z,2308.00
2019-01-30T14:25:14.676Z,2284.00
2019-01-30T14:26:14.665Z,2260.00
2019-01-30T14:27:14.657Z,2240.00
2019-01-30T14:28:14.648Z,2216.00
2019-01-30T14:29:14.631Z,2188.00
2019-01-30T14:30:14.621Z,2168.00
2019-01-30T14:31:14.616Z,2140.00
2019-01-30T14:32:15.021Z,2116.00
2019-01-30T14:33:14.598Z,2092.00
2019-01-30T14:34:14.594Z,2068.00
2019-01-30T14:35:14.585Z,2044.00
2019-01-30T14:36:14.573Z,2016.00
2019-01-30T14:37:14.542Z,1988.00
2019-01-30T14:38:14.572Z,1960.00
2019-01-30T14:39:14.563Z,1936.00
2019-01-30T14:40:14.543Z,1900.00
2019-01-30T14:41:14.521Z,1868.00
2019-01-30T14:42:14.503Z,1840.00
2019-01-30T14:43:14.523Z,1808.00
2019-01-30T14:44:14.476Z,1772.00
2019-01-30T14:45:14.454Z,1732.00
2019-01-30T14:46:14.444Z,1692.00
2019-01-30T14:47:14.437Z,1644.00
2019-01-30T14:48:14.424Z,1596.00
2019-01-30T14:49:14.411Z,1556.00
2019-01-30T14:50:14.404Z,1512.00
2019-01-30T14:51:14.549Z,1476.00
2019-01-30T14:52:14.378Z,1440.00
2019-01-30T14:53:14.369Z,1408.00
2019-01-30T14:54:14.359Z,1376.00
2019-01-30T14:55:14.389Z,1344.00
2019-01-30T14:56:14.336Z,1312.00
2019-01-30T14:57:14.325Z,1280.00
2019-01-30T14:58:14.311Z,1252.00
2019-01-30T14:59:14.347Z,1216.00
2019-01-30T15:00:14.339Z,1184.00
2019-01-30T15:01:14.306Z,1148.00
2019-01-30T15:02:14.429Z,1112.00
2019-01-30T15:03:14.299Z,1076.00
2019-01-30T15:04:14.244Z,1044.00
2019-01-30T15:05:21.802Z,1008.00
2019-01-30T15:06:38.706Z,960.00
2019-01-30T15:07:38.719Z,928.00
2019-01-30T15:08:38.727Z,892.00
2019-01-30T15:09:38.670Z,860.00
2019-01-30T15:10:38.659Z,828.00
2019-01-30T15:11:38.659Z,796.00
2019-01-30T15:12:38.667Z,768.00
2019-01-30T15:13:38.663Z,736.00
2019-01-30T15:14:38.615Z,708.00
2019-01-30T15:15:38.630Z,680.00
2019-01-30T15:16:38.593Z,656.00
2019-01-30T15:17:38.584Z,628.00
2019-01-30T15:18:38.570Z,600.00
2019-01-30T15:19:38.559Z,576.00
2019-01-30T15:20:38.576Z,548.00
2019-01-30T15:21:38.535Z,524.00
2019-01-30T15:22:38.527Z,496.00
2019-01-30T15:23:38.514Z,472.00
2019-01-30T15:24:38.505Z,444.00
2019-01-30T15:25:38.498Z,416.00
2019-01-30T15:26:38.480Z,392.00
2019-01-30T15:27:38.469Z,372.00
2019-01-30T15:28:38.461Z,348.00
2019-01-30T15:29:38.448Z,328.00
2019-01-30T15:30:38.436Z,308.00
2019-01-30T15:31:38.425Z,292.00
2019-01-30T15:32:38.413Z,276.00
2019-01-30T15:33:38.401Z,260.00
2019-01-30T15:34:38.391Z,244.00
2019-01-30T15:35:38.391Z,232.00
2019-01-30T15:36:38.370Z,220.00
2019-01-30T15:37:38.365Z,204.00
2019-01-30T15:38:38.352Z,192.00
2019-01-30T15:39:38.333Z,180.00
2019-01-30T15:40:38.328Z,168.00
2019-01-30T15:41:38.313Z,156.00
2019-01-30T15:42:48.956Z,144.00
2019-01-30T15:44:02.769Z,132.00
2019-01-30T15:45:02.758Z,124.00
2019-01-30T15:46:02.745Z,116.00
2019-01-30T15:47:02.734Z,108.00
2019-01-30T15:48:02.722Z,100.00
2019-01-30T15:49:02.711Z,92.00
2019-01-30T15:50:02.706Z,84.00
2019-01-30T15:51:02.698Z,80.00
2019-01-30T15:52:02.676Z,72.00
2019-01-30T15:53:02.667Z,64.00
2019-01-30T15:54:02.653Z,60.00
2019-01-30T15:55:02.646Z,52.00
2019-01-30T15:56:02.637Z,48.00
2019-01-30T15:57:02.622Z,44.00
2019-01-30T15:58:02.607Z,36.00
2019-01-30T15:59:02.602Z,32.00
2019-01-30T16:00:02.586Z,28.00
2019-01-30T16:01:02.573Z,24.00
2019-01-30T16:02:02.565Z,20.00
2019-01-30T16:03:02.554Z,20.00
2019-01-30T16:04:05.928Z,16.00
2019-01-30T16:05:02.535Z,16.00
2019-01-30T16:06:02.519Z,12.00
2019-01-30T16:07:02.507Z,12.00
2019-01-30T16:08:02.498Z,12.00
2019-01-30T16:09:02.506Z,8.00
2019-01-30T16:10:02.483Z,8.00
2019-01-30T16:11:02.495Z,8.00
2019-01-30T16:12:02.450Z,4.00
2019-01-30T16:13:02.440Z,4.00
2019-01-30T16:14:02.431Z,8.00
2019-01-30T16:15:02.419Z,4.00
2019-01-30T16:16:02.513Z,4.00
2019-01-30T16:17:02.398Z,4.00
2019-01-30T16:18:02.405Z,4.00
2019-01-30T16:20:02.359Z,4.00
2019-01-30T16:21:02.346Z,4.00
2019-01-30T16:22:02.337Z,4.00
2019-01-30T16:23:02.323Z,4.00
2019-01-30T16:24:02.315Z,4.00
2019-01-30T16:25:08.742Z,4.00
2019-01-30T16:26:26.774Z,4.00
2019-01-30T16:27:26.759Z,4.00
2019-01-30T16:28:26.747Z,4.00
2019-01-30T16:29:26.740Z,4.00
2019-01-30T16:30:26.726Z,4.00
2019-01-30T16:31:26.717Z,4.00
2019-01-30T16:32:26.701Z,4.00
2019-01-30T16:33:26.691Z,4.00
2019-01-30T16:34:26.680Z,4.00
2019-01-30T16:35:26.669Z,4.00
2019-01-30T16:36:26.661Z,4.00
2019-01-30T16:37:26.650Z,4.00
2019-01-30T16:38:26.638Z,4.00
2019-01-30T16:39:29.110Z,4.00
2019-01-30T16:40:26.623Z,4.00
2019-01-30T16:41:26.604Z,4.00
2019-01-30T16:42:26.595Z,4.00
2019-01-30T16:43:26.599Z,4.00
2019-01-30T16:44:26.607Z,4.00
2019-01-30T16:45:26.603Z,4.00
2019-01-30T20:31:48.539Z,0.00
2019-01-30T20:33:48.520Z,0.00
2019-01-30T20:36:48.481Z,0.00
2019-01-30T20:39:48.448Z,0.00
2019-01-30T20:40:48.436Z,0.00
2019-01-30T20:41:48.428Z,0.00
2019-01-30T20:42:48.412Z,0.00
2019-01-30T20:43:48.407Z,0.00
2019-01-30T20:44:48.392Z,0.00
2019-01-30T20:48:51.654Z,0.00
2019-01-30T20:51:48.315Z,0.00
2019-01-30T20:53:48.292Z,0.00
2019-01-30T20:54:59.435Z,0.00
2019-01-30T21:00:12.710Z,0.00
2019-01-30T21:01:12.696Z,0.00
2019-01-30T21:02:12.688Z,0.00
2019-01-30T21:05:12.653Z,0.00
2019-01-30T21:06:12.644Z,0.00
2019-01-30T21:07:12.628Z,0.00
2019-01-30T21:08:12.617Z,0.00
2019-01-30T21:09:12.608Z,0.00
2019-01-30T21:10:12.601Z,0.00
2019-01-30T21:11:12.584Z,0.00
2019-01-30T21:12:12.574Z,0.00
2019-01-30T21:19:12.521Z,0.00
2019-01-30T21:24:12.473Z,0.00
